sensor_id;sensor_type;location;lat;lon;timestamp;pressure;altitude;pressure_sealevel;temperature;humidity
51972;BME280;37991;49.662;10.060;2022-07-10T00:00:25;99942.84;;;16.57;79.96
51972;BME280;37991;49.662;10.060;2022-07-10T00:02:51;99940.09;;;16.89;78.69
51972;BME280;37991;49.662;10.060;2022-07-10T00:05:18;99946.81;;;16.72;79.23
51972;BME280;37991;49.662;10.060;2022-07-10T00:07:44;99937.97;;;16.62;79.65
51972;BME280;37991;49.662;10.060;2022-07-10T00:10:09;99942.22;;;16.74;79.33
51972;BME280;37991;49.662;10.060;2022-07-10T00:12:35;99944.41;;;16.90;78.73
51972;BME280;37991;49.662;10.060;2022-07-10T00:15:01;99942.59;;;16.90;78.55
51972;BME280;37991;49.662;10.060;2022-07-10T00:17:26;99944.66;;;16.56;80.13
51972;BME280;37991;49.662;10.060;2022-07-10T00:19:51;99939.78;;;16.82;78.96
51972;BME280;37991;49.662;10.060;2022-07-10T00:22:17;99930.28;;;16.59;79.64
51972;BME280;37991;49.662;10.060;2022-07-10T00:24:42;99933.09;;;16.57;80.15
51972;BME280;37991;49.662;10.060;2022-07-10T00:27:07;99937.81;;;16.54;80.83
51972;BME280;37991;49.662;10.060;2022-07-10T00:29:33;99937.34;;;16.48;80.59
51972;BME280;37991;49.662;10.060;2022-07-10T00:31:58;99946.94;;;16.49;80.49
51972;BME280;37991;49.662;10.060;2022-07-10T00:34:23;99936.00;;;16.33;81.19
51972;BME280;37991;49.662;10.060;2022-07-10T00:36:49;99943.13;;;16.12;81.69
51972;BME280;37991;49.662;10.060;2022-07-10T00:39:14;99947.56;;;16.32;81.20
51972;BME280;37991;49.662;10.060;2022-07-10T00:41:39;99953.69;;;16.12;81.55
51972;BME280;37991;49.662;10.060;2022-07-10T00:44:05;99948.31;;;16.23;81.48
51972;BME280;37991;49.662;10.060;2022-07-10T00:46:31;99944.63;;;16.14;81.60
51972;BME280;37991;49.662;10.060;2022-07-10T00:48:57;99948.25;;;16.13;81.57
51972;BME280;37991;49.662;10.060;2022-07-10T00:51:26;99957.22;;;16.22;81.72
51972;BME280;37991;49.662;10.060;2022-07-10T00:53:51;99945.41;;;16.26;81.16
51972;BME280;37991;49.662;10.060;2022-07-10T00:56:19;99944.69;;;16.24;80.90
51972;BME280;37991;49.662;10.060;2022-07-10T00:58:48;99946.06;;;16.18;81.39
51972;BME280;37991;49.662;10.060;2022-07-10T01:01:14;99943.34;;;16.30;81.03
51972;BME280;37991;49.662;10.060;2022-07-10T01:03:40;99939.81;;;16.40;80.84
51972;BME280;37991;49.662;10.060;2022-07-10T01:06:06;99940.28;;;16.24;81.11
51972;BME280;37991;49.662;10.060;2022-07-10T01:08:32;99937.44;;;16.37;80.92
51972;BME280;37991;49.662;10.060;2022-07-10T01:10:58;99931.94;;;16.29;80.75
51972;BME280;37991;49.662;10.060;2022-07-10T01:13:24;99929.56;;;16.26;80.85
51972;BME280;37991;49.662;10.060;2022-07-10T01:15:50;99932.41;;;16.13;81.76
51972;BME280;37991;49.662;10.060;2022-07-10T01:18:16;99930.47;;;16.15;81.48
51972;BME280;37991;49.662;10.060;2022-07-10T01:20:41;99927.88;;;16.04;81.94
51972;BME280;37991;49.662;10.060;2022-07-10T01:23:07;99938.09;;;15.76;82.80
51972;BME280;37991;49.662;10.060;2022-07-10T01:25:32;99940.09;;;15.84;82.34
51972;BME280;37991;49.662;10.060;2022-07-10T01:27:58;99943.22;;;15.89;82.59
51972;BME280;37991;49.662;10.060;2022-07-10T01:30:24;99936.72;;;15.93;82.11
51972;BME280;37991;49.662;10.060;2022-07-10T01:32:50;99934.75;;;15.74;83.06
51972;BME280;37991;49.662;10.060;2022-07-10T01:35:15;99936.44;;;15.64;83.99
51972;BME280;37991;49.662;10.060;2022-07-10T01:37:41;99939.06;;;15.75;83.89
51972;BME280;37991;49.662;10.060;2022-07-10T01:40:07;99939.44;;;15.59;84.43
51972;BME280;37991;49.662;10.060;2022-07-10T01:42:33;99939.00;;;15.54;85.12
51972;BME280;37991;49.662;10.060;2022-07-10T01:44:59;99940.41;;;15.70;84.36
51972;BME280;37991;49.662;10.060;2022-07-10T01:47:24;99942.78;;;15.73;84.49
51972;BME280;37991;49.662;10.060;2022-07-10T01:49:51;99948.91;;;15.62;84.75
51972;BME280;37991;49.662;10.060;2022-07-10T01:52:21;99949.06;;;15.49;85.50
51972;BME280;37991;49.662;10.060;2022-07-10T01:54:47;99944.53;;;15.40;85.86
51972;BME280;37991;49.662;10.060;2022-07-10T01:57:13;99948.75;;;15.31;86.41
51972;BME280;37991;49.662;10.060;2022-07-10T01:59:39;99952.84;;;15.24;87.07
51972;BME280;37991;49.662;10.060;2022-07-10T02:02:04;99940.66;;;15.44;86.16
51972;BME280;37991;49.662;10.060;2022-07-10T02:04:30;99946.31;;;15.51;85.90
51972;BME280;37991;49.662;10.060;2022-07-10T02:07:11;99951.13;;;15.34;86.55
51972;BME280;37991;49.662;10.060;2022-07-10T02:09:38;99947.44;;;15.26;87.25
51972;BME280;37991;49.662;10.060;2022-07-10T02:12:08;99946.72;;;15.24;87.56
51972;BME280;37991;49.662;10.060;2022-07-10T02:14:34;99953.41;;;15.39;87.04
51972;BME280;37991;49.662;10.060;2022-07-10T02:16:59;99959.16;;;15.44;86.65
51972;BME280;37991;49.662;10.060;2022-07-10T02:19:25;99942.72;;;15.52;85.97
51972;BME280;37991;49.662;10.060;2022-07-10T02:21:50;99952.44;;;15.51;86.32
51972;BME280;37991;49.662;10.060;2022-07-10T02:24:16;99951.50;;;15.41;86.79
51972;BME280;37991;49.662;10.060;2022-07-10T02:26:42;99946.63;;;15.25;87.85
51972;BME280;37991;49.662;10.060;2022-07-10T02:29:07;99955.22;;;15.27;87.54
51972;BME280;37991;49.662;10.060;2022-07-10T02:31:33;99957.97;;;15.48;86.63
51972;BME280;37991;49.662;10.060;2022-07-10T02:34:02;99955.56;;;15.45;86.65
51972;BME280;37991;49.662;10.060;2022-07-10T02:36:27;99955.47;;;15.35;87.19
51972;BME280;37991;49.662;10.060;2022-07-10T02:38:53;99956.06;;;15.39;87.11
51972;BME280;37991;49.662;10.060;2022-07-10T02:41:18;99956.25;;;15.47;86.47
51972;BME280;37991;49.662;10.060;2022-07-10T02:43:43;99959.78;;;15.48;86.13
51972;BME280;37991;49.662;10.060;2022-07-10T02:46:09;99958.13;;;15.35;86.76
51972;BME280;37991;49.662;10.060;2022-07-10T02:48:34;99958.22;;;15.34;86.90
51972;BME280;37991;49.662;10.060;2022-07-10T02:50:59;99953.72;;;15.57;85.65
51972;BME280;37991;49.662;10.060;2022-07-10T02:53:25;99953.38;;;15.62;85.22
51972;BME280;37991;49.662;10.060;2022-07-10T02:55:50;99949.63;;;15.75;84.74
51972;BME280;37991;49.662;10.060;2022-07-10T02:58:16;99953.47;;;15.71;84.21
51972;BME280;37991;49.662;10.060;2022-07-10T03:00:42;99948.78;;;15.75;84.51
51972;BME280;37991;49.662;10.060;2022-07-10T03:03:08;99962.47;;;16.01;83.21
51972;BME280;37991;49.662;10.060;2022-07-10T03:05:33;99963.31;;;16.01;83.04
51972;BME280;37991;49.662;10.060;2022-07-10T03:07:58;99959.00;;;15.79;83.47
51972;BME280;37991;49.662;10.060;2022-07-10T03:10:24;99967.94;;;15.88;82.86
51972;BME280;37991;49.662;10.060;2022-07-10T03:12:49;99967.50;;;15.83;82.88
51972;BME280;37991;49.662;10.060;2022-07-10T03:15:15;99965.53;;;15.96;82.76
51972;BME280;37991;49.662;10.060;2022-07-10T03:17:40;99969.66;;;15.78;83.00
51972;BME280;37991;49.662;10.060;2022-07-10T03:20:07;99972.94;;;15.59;83.64
51972;BME280;37991;49.662;10.060;2022-07-10T03:22:34;99979.69;;;15.52;84.50
51972;BME280;37991;49.662;10.060;2022-07-10T03:24:59;99972.72;;;15.40;84.89
51972;BME280;37991;49.662;10.060;2022-07-10T03:27:25;99969.38;;;15.38;84.61
51972;BME280;37991;49.662;10.060;2022-07-10T03:29:50;99967.50;;;15.17;85.70
51972;BME280;37991;49.662;10.060;2022-07-10T03:32:15;99968.56;;;14.92;85.96
51972;BME280;37991;49.662;10.060;2022-07-10T03:34:41;99970.72;;;14.76;86.36
51972;BME280;37991;49.662;10.060;2022-07-10T03:37:07;99979.34;;;14.67;86.16
51972;BME280;37991;49.662;10.060;2022-07-10T03:39:32;99978.75;;;14.52;86.36
51972;BME280;37991;49.662;10.060;2022-07-10T03:41:58;99976.19;;;14.50;86.51
51972;BME280;37991;49.662;10.060;2022-07-10T03:44:24;99983.66;;;14.56;86.92
51972;BME280;37991;49.662;10.060;2022-07-10T03:46:50;99983.19;;;14.62;86.83
51972;BME280;37991;49.662;10.060;2022-07-10T03:49:15;99984.75;;;14.76;86.03
51972;BME280;37991;49.662;10.060;2022-07-10T03:51:41;99981.03;;;14.79;85.61
51972;BME280;37991;49.662;10.060;2022-07-10T03:54:06;99985.59;;;14.88;85.26
51972;BME280;37991;49.662;10.060;2022-07-10T03:56:31;99984.88;;;14.86;85.10
51972;BME280;37991;49.662;10.060;2022-07-10T03:59:15;99986.91;;;15.05;84.50
51972;BME280;37991;49.662;10.060;2022-07-10T04:01:41;99990.16;;;15.08;84.24
51972;BME280;37991;49.662;10.060;2022-07-10T04:04:06;99990.38;;;15.39;82.89
51972;BME280;37991;49.662;10.060;2022-07-10T04:06:31;99992.91;;;15.18;82.74
51972;BME280;37991;49.662;10.060;2022-07-10T04:08:57;99996.28;;;14.98;83.09
51972;BME280;37991;49.662;10.060;2022-07-10T04:11:22;99998.81;;;15.10;82.66
51972;BME280;37991;49.662;10.060;2022-07-10T04:13:47;99996.41;;;14.85;82.94
51972;BME280;37991;49.662;10.060;2022-07-10T04:16:13;99989.91;;;14.89;83.74
51972;BME280;37991;49.662;10.060;2022-07-10T04:18:39;99984.19;;;14.84;82.80
51972;BME280;37991;49.662;10.060;2022-07-10T04:21:05;99979.84;;;14.72;83.39
51972;BME280;37991;49.662;10.060;2022-07-10T04:23:32;99976.13;;;14.63;83.95
51972;BME280;37991;49.662;10.060;2022-07-10T04:25:58;99984.72;;;14.54;83.11
51972;BME280;37991;49.662;10.060;2022-07-10T04:28:23;99984.88;;;14.86;83.82
51972;BME280;37991;49.662;10.060;2022-07-10T04:30:48;99996.38;;;14.74;84.02
51972;BME280;37991;49.662;10.060;2022-07-10T04:33:14;99995.28;;;14.76;82.07
51972;BME280;37991;49.662;10.060;2022-07-10T04:35:39;99992.53;;;14.67;81.86
51972;BME280;37991;49.662;10.060;2022-07-10T04:38:04;99986.06;;;14.59;81.25
51972;BME280;37991;49.662;10.060;2022-07-10T04:40:30;99989.44;;;14.37;78.36
51972;BME280;37991;49.662;10.060;2022-07-10T04:42:55;99999.09;;;14.26;79.20
51972;BME280;37991;49.662;10.060;2022-07-10T04:45:20;100007.09;;;14.13;77.42
51972;BME280;37991;49.662;10.060;2022-07-10T04:47:46;100004.34;;;14.14;76.63
51972;BME280;37991;49.662;10.060;2022-07-10T04:50:11;99998.78;;;14.06;77.13
51972;BME280;37991;49.662;10.060;2022-07-10T04:52:36;100000.97;;;14.12;76.53
51972;BME280;37991;49.662;10.060;2022-07-10T04:55:02;99997.00;;;14.07;77.23
51972;BME280;37991;49.662;10.060;2022-07-10T04:57:27;100005.88;;;14.06;76.12
51972;BME280;37991;49.662;10.060;2022-07-10T04:59:53;99999.41;;;14.10;75.62
51972;BME280;37991;49.662;10.060;2022-07-10T05:02:18;100002.41;;;14.05;74.97
51972;BME280;37991;49.662;10.060;2022-07-10T05:04:44;100002.00;;;13.99;74.93
51972;BME280;37991;49.662;10.060;2022-07-10T05:07:09;100005.63;;;13.98;75.20
51972;BME280;37991;49.662;10.060;2022-07-10T05:09:34;100011.09;;;13.94;74.88
51972;BME280;37991;49.662;10.060;2022-07-10T05:12:00;100008.25;;;13.98;75.22
51972;BME280;37991;49.662;10.060;2022-07-10T05:14:25;100004.06;;;14.06;75.69
51972;BME280;37991;49.662;10.060;2022-07-10T05:16:50;100008.28;;;14.09;74.97
51972;BME280;37991;49.662;10.060;2022-07-10T05:19:16;100009.84;;;14.11;75.43
51972;BME280;37991;49.662;10.060;2022-07-10T05:21:41;100012.25;;;14.14;74.74
51972;BME280;37991;49.662;10.060;2022-07-10T05:24:06;100008.44;;;14.18;74.13
51972;BME280;37991;49.662;10.060;2022-07-10T05:26:32;100016.47;;;14.17;73.72
51972;BME280;37991;49.662;10.060;2022-07-10T05:28:57;100016.56;;;14.15;74.24
51972;BME280;37991;49.662;10.060;2022-07-10T05:31:23;100019.34;;;14.25;73.60
51972;BME280;37991;49.662;10.060;2022-07-10T05:33:48;100022.00;;;14.25;73.32
51972;BME280;37991;49.662;10.060;2022-07-10T05:36:13;100026.06;;;14.29;72.88
51972;BME280;37991;49.662;10.060;2022-07-10T05:38:38;100025.38;;;14.38;71.16
51972;BME280;37991;49.662;10.060;2022-07-10T05:41:04;100027.09;;;14.39;70.81
51972;BME280;37991;49.662;10.060;2022-07-10T05:43:29;100029.34;;;14.44;70.16
51972;BME280;37991;49.662;10.060;2022-07-10T05:45:55;100031.94;;;14.57;69.81
51972;BME280;37991;49.662;10.060;2022-07-10T05:48:20;100024.41;;;14.52;68.37
51972;BME280;37991;49.662;10.060;2022-07-10T05:50:46;100024.88;;;14.57;68.51
51972;BME280;37991;49.662;10.060;2022-07-10T05:53:11;100016.97;;;14.57;68.38
51972;BME280;37991;49.662;10.060;2022-07-10T05:55:37;100026.56;;;14.70;68.47
51972;BME280;37991;49.662;10.060;2022-07-10T05:58:02;100029.59;;;14.76;68.36
51972;BME280;37991;49.662;10.060;2022-07-10T06:00:27;100036.22;;;15.04;67.47
51972;BME280;37991;49.662;10.060;2022-07-10T06:02:53;100040.91;;;15.23;66.68
51972;BME280;37991;49.662;10.060;2022-07-10T06:05:18;100033.47;;;15.28;65.40
51972;BME280;37991;49.662;10.060;2022-07-10T06:07:43;100031.44;;;15.32;64.93
51972;BME280;37991;49.662;10.060;2022-07-10T06:10:09;100029.25;;;15.37;64.67
51972;BME280;37991;49.662;10.060;2022-07-10T06:12:34;100029.13;;;15.27;64.63
51972;BME280;37991;49.662;10.060;2022-07-10T06:15:00;100032.97;;;15.23;63.68
51972;BME280;37991;49.662;10.060;2022-07-10T06:17:25;100032.59;;;15.28;64.98
51972;BME280;37991;49.662;10.060;2022-07-10T06:19:51;100035.72;;;15.44;63.78
51972;BME280;37991;49.662;10.060;2022-07-10T06:22:16;100036.34;;;15.48;63.39
51972;BME280;37991;49.662;10.060;2022-07-10T06:25:02;100032.59;;;15.50;63.55
51972;BME280;37991;49.662;10.060;2022-07-10T06:27:28;100038.84;;;15.61;64.26
51972;BME280;37991;49.662;10.060;2022-07-10T06:29:54;100039.38;;;15.98;62.20
51972;BME280;37991;49.662;10.060;2022-07-10T06:32:19;100038.09;;;16.45;60.50
51972;BME280;37991;49.662;10.060;2022-07-10T06:34:44;100053.81;;;16.79;59.70
51972;BME280;37991;49.662;10.060;2022-07-10T06:37:10;100051.16;;;16.79;59.35
51972;BME280;37991;49.662;10.060;2022-07-10T06:39:35;100051.06;;;16.90;60.49
51972;BME280;37991;49.662;10.060;2022-07-10T06:42:05;100051.34;;;16.87;60.66
51972;BME280;37991;49.662;10.060;2022-07-10T06:44:37;100047.38;;;17.03;60.29
51972;BME280;37991;49.662;10.060;2022-07-10T06:47:02;100053.41;;;17.45;58.96
51972;BME280;37991;49.662;10.060;2022-07-10T06:49:47;100055.53;;;17.11;58.61
51972;BME280;37991;49.662;10.060;2022-07-10T06:52:14;100057.59;;;16.86;59.83
51972;BME280;37991;49.662;10.060;2022-07-10T06:54:40;100059.44;;;16.74;60.46
51972;BME280;37991;49.662;10.060;2022-07-10T06:57:06;100054.22;;;16.63;60.68
51972;BME280;37991;49.662;10.060;2022-07-10T06:59:31;100050.63;;;16.43;61.01
51972;BME280;37991;49.662;10.060;2022-07-10T07:01:57;100049.44;;;16.36;61.85
51972;BME280;37991;49.662;10.060;2022-07-10T07:04:22;100042.34;;;16.37;61.82
51972;BME280;37991;49.662;10.060;2022-07-10T07:06:48;100050.28;;;16.04;62.81
51972;BME280;37991;49.662;10.060;2022-07-10T07:09:13;100052.22;;;16.02;62.35
51972;BME280;37991;49.662;10.060;2022-07-10T07:11:38;100051.72;;;16.09;62.85
51972;BME280;37991;49.662;10.060;2022-07-10T07:14:04;100052.72;;;16.28;62.30
51972;BME280;37991;49.662;10.060;2022-07-10T07:16:29;100056.34;;;16.27;61.53
51972;BME280;37991;49.662;10.060;2022-07-10T07:19:08;100055.28;;;16.19;61.58
51972;BME280;37991;49.662;10.060;2022-07-10T07:21:36;100056.00;;;16.21;62.50
51972;BME280;37991;49.662;10.060;2022-07-10T07:24:20;100065.75;;;16.62;62.11
51972;BME280;37991;49.662;10.060;2022-07-10T07:26:47;100066.91;;;16.48;61.22
51972;BME280;37991;49.662;10.060;2022-07-10T07:29:16;100069.81;;;16.45;61.28
51972;BME280;37991;49.662;10.060;2022-07-10T07:31:42;100067.81;;;16.38;61.78
51972;BME280;37991;49.662;10.060;2022-07-10T07:34:08;100066.53;;;16.85;62.63
51972;BME280;37991;49.662;10.060;2022-07-10T07:36:33;100071.38;;;17.41;59.78
51972;BME280;37991;49.662;10.060;2022-07-10T07:38:59;100069.91;;;17.99;57.92
51972;BME280;37991;49.662;10.060;2022-07-10T07:41:24;100070.03;;;17.87;57.17
51972;BME280;37991;49.662;10.060;2022-07-10T07:43:50;100071.25;;;17.43;56.97
51972;BME280;37991;49.662;10.060;2022-07-10T07:46:16;100071.94;;;17.05;57.72
51972;BME280;37991;49.662;10.060;2022-07-10T07:48:41;100070.63;;;17.20;58.26
51972;BME280;37991;49.662;10.060;2022-07-10T07:51:07;100071.00;;;17.46;56.91
51972;BME280;37991;49.662;10.060;2022-07-10T07:53:32;100067.25;;;17.49;55.86
51972;BME280;37991;49.662;10.060;2022-07-10T07:55:58;100058.72;;;17.45;56.39
51972;BME280;37991;49.662;10.060;2022-07-10T07:58:23;100045.38;;;17.97;57.71
51972;BME280;37991;49.662;10.060;2022-07-10T08:00:49;100046.75;;;18.49;55.38
51972;BME280;37991;49.662;10.060;2022-07-10T08:03:14;100053.03;;;17.90;53.57
51972;BME280;37991;49.662;10.060;2022-07-10T08:05:40;100055.63;;;17.80;52.89
51972;BME280;37991;49.662;10.060;2022-07-10T08:08:06;100051.78;;;17.54;53.68
51972;BME280;37991;49.662;10.060;2022-07-10T08:10:34;100051.25;;;17.60;54.15
51972;BME280;37991;49.662;10.060;2022-07-10T08:13:00;100045.41;;;17.66;54.39
51972;BME280;37991;49.662;10.060;2022-07-10T08:15:26;100038.63;;;17.93;52.21
51972;BME280;37991;49.662;10.060;2022-07-10T08:17:53;100041.59;;;18.09;51.16
51972;BME280;37991;49.662;10.060;2022-07-10T08:20:20;100048.13;;;17.45;51.68
51972;BME280;37991;49.662;10.060;2022-07-10T08:22:46;100046.69;;;17.01;51.93
51972;BME280;37991;49.662;10.060;2022-07-10T08:25:13;100035.91;;;17.13;52.77
51972;BME280;37991;49.662;10.060;2022-07-10T08:27:39;100032.38;;;17.84;50.26
51972;BME280;37991;49.662;10.060;2022-07-10T08:30:06;100026.84;;;17.56;49.87
51972;BME280;37991;49.662;10.060;2022-07-10T08:32:31;100031.69;;;17.11;51.31
51972;BME280;37991;49.662;10.060;2022-07-10T08:34:57;100031.31;;;17.25;52.33
51972;BME280;37991;49.662;10.060;2022-07-10T08:37:24;100042.47;;;17.29;51.20
51972;BME280;37991;49.662;10.060;2022-07-10T08:39:49;100039.69;;;17.20;51.54
51972;BME280;37991;49.662;10.060;2022-07-10T08:42:15;100042.28;;;17.11;51.71
51972;BME280;37991;49.662;10.060;2022-07-10T08:44:41;100040.22;;;17.14;52.02
51972;BME280;37991;49.662;10.060;2022-07-10T08:47:06;100039.94;;;17.17;51.89
51972;BME280;37991;49.662;10.060;2022-07-10T08:49:32;100054.47;;;17.23;51.69
51972;BME280;37991;49.662;10.060;2022-07-10T08:52:08;100040.66;;;17.29;51.46
51972;BME280;37991;49.662;10.060;2022-07-10T08:54:38;100047.97;;;17.37;50.94
51972;BME280;37991;49.662;10.060;2022-07-10T08:57:04;100049.53;;;17.49;51.25
51972;BME280;37991;49.662;10.060;2022-07-10T08:59:31;100040.09;;;17.66;50.04
51972;BME280;37991;49.662;10.060;2022-07-10T09:01:56;100031.78;;;17.80;50.21
51972;BME280;37991;49.662;10.060;2022-07-10T09:04:24;100032.94;;;17.97;48.60
51972;BME280;37991;49.662;10.060;2022-07-10T09:06:51;100031.13;;;17.88;48.68
51972;BME280;37991;49.662;10.060;2022-07-10T09:09:17;100028.31;;;17.80;49.97
51972;BME280;37991;49.662;10.060;2022-07-10T09:11:43;100041.34;;;17.52;50.48
51972;BME280;37991;49.662;10.060;2022-07-10T09:14:11;100048.50;;;17.31;51.03
51972;BME280;37991;49.662;10.060;2022-07-10T09:16:39;100062.41;;;17.23;50.77
51972;BME280;37991;49.662;10.060;2022-07-10T09:21:43;100059.53;;;17.36;50.63
51972;BME280;37991;49.662;10.060;2022-07-10T09:24:09;100053.16;;;17.48;49.98
51972;BME280;37991;49.662;10.060;2022-07-10T09:26:38;100048.97;;;17.46;50.29
51972;BME280;37991;49.662;10.060;2022-07-10T09:29:11;100049.78;;;17.36;49.94
51972;BME280;37991;49.662;10.060;2022-07-10T09:31:58;100048.78;;;17.37;50.49
51972;BME280;37991;49.662;10.060;2022-07-10T09:34:37;100053.56;;;17.43;49.64
51972;BME280;37991;49.662;10.060;2022-07-10T09:37:27;100054.53;;;17.12;50.11
51972;BME280;37991;49.662;10.060;2022-07-10T09:39:59;100053.81;;;17.10;51.19
51972;BME280;37991;49.662;10.060;2022-07-10T09:50:31;100058.50;;;16.96;50.88
51972;BME280;37991;49.662;10.060;2022-07-10T09:53:02;100052.25;;;16.98;51.45
51972;BME280;37991;49.662;10.060;2022-07-10T09:55:29;100045.41;;;16.95;50.46
51972;BME280;37991;49.662;10.060;2022-07-10T09:58:06;100055.22;;;16.83;51.14
51972;BME280;37991;49.662;10.060;2022-07-10T10:00:35;100056.81;;;16.95;51.56
51972;BME280;37991;49.662;10.060;2022-07-10T10:03:03;100048.16;;;17.14;50.88
51972;BME280;37991;49.662;10.060;2022-07-10T10:05:34;100048.09;;;17.35;50.41
51972;BME280;37991;49.662;10.060;2022-07-10T10:08:05;100052.31;;;17.48;50.75
51972;BME280;37991;49.662;10.060;2022-07-10T10:10:31;100049.09;;;17.44;50.38
51972;BME280;37991;49.662;10.060;2022-07-10T10:12:58;100041.94;;;17.35;50.91
51972;BME280;37991;49.662;10.060;2022-07-10T10:15:25;100042.41;;;17.40;51.48
51972;BME280;37991;49.662;10.060;2022-07-10T10:17:51;100041.72;;;17.48;50.80
51972;BME280;37991;49.662;10.060;2022-07-10T10:20:18;100028.66;;;17.56;49.78
51972;BME280;37991;49.662;10.060;2022-07-10T10:23:05;100038.06;;;17.79;50.56
51972;BME280;37991;49.662;10.060;2022-07-10T10:25:33;100032.50;;;18.31;50.51
51972;BME280;37991;49.662;10.060;2022-07-10T10:28:00;100026.06;;;18.63;49.05
51972;BME280;37991;49.662;10.060;2022-07-10T10:30:26;100036.13;;;18.49;48.46
51972;BME280;37991;49.662;10.060;2022-07-10T10:32:52;100037.53;;;18.05;48.57
51972;BME280;37991;49.662;10.060;2022-07-10T10:35:43;100044.94;;;18.11;49.59
51972;BME280;37991;49.662;10.060;2022-07-10T10:38:15;100032.41;;;18.13;48.78
51972;BME280;37991;49.662;10.060;2022-07-10T10:40:41;100031.56;;;18.42;48.83
51972;BME280;37991;49.662;10.060;2022-07-10T10:43:23;100038.38;;;18.34;48.84
51972;BME280;37991;49.662;10.060;2022-07-10T10:45:49;100036.00;;;18.02;49.25
51972;BME280;37991;49.662;10.060;2022-07-10T10:48:19;100040.16;;;17.85;49.73
51972;BME280;37991;49.662;10.060;2022-07-10T10:50:52;100047.88;;;17.98;49.27
51972;BME280;37991;49.662;10.060;2022-07-10T10:53:25;100041.28;;;17.93;50.08
51972;BME280;37991;49.662;10.060;2022-07-10T10:58:39;100043.94;;;17.93;50.18
51972;BME280;37991;49.662;10.060;2022-07-10T11:01:05;100020.34;;;17.89;49.99
51972;BME280;37991;49.662;10.060;2022-07-10T11:03:31;100037.69;;;17.94;50.10
51972;BME280;37991;49.662;10.060;2022-07-10T11:05:57;100028.75;;;18.04;49.55
51972;BME280;37991;49.662;10.060;2022-07-10T11:08:36;100027.34;;;17.81;50.13
51972;BME280;37991;49.662;10.060;2022-07-10T11:13:59;100014.94;;;18.10;49.56
51972;BME280;37991;49.662;10.060;2022-07-10T11:16:24;100020.81;;;18.14;50.01
51972;BME280;37991;49.662;10.060;2022-07-10T11:18:53;100024.28;;;18.34;48.91
51972;BME280;37991;49.662;10.060;2022-07-10T11:21:23;100024.00;;;18.27;49.57
51972;BME280;37991;49.662;10.060;2022-07-10T11:29:39;100013.63;;;18.63;48.77
51972;BME280;37991;49.662;10.060;2022-07-10T11:32:04;100004.97;;;18.71;48.97
51972;BME280;37991;49.662;10.060;2022-07-10T11:34:36;100000.06;;;18.66;48.64
51972;BME280;37991;49.662;10.060;2022-07-10T11:37:23;100009.03;;;18.75;48.93
51972;BME280;37991;49.662;10.060;2022-07-10T11:40:07;100010.69;;;18.76;48.76
51972;BME280;37991;49.662;10.060;2022-07-10T11:42:51;100003.97;;;18.81;48.58
51972;BME280;37991;49.662;10.060;2022-07-10T11:45:30;100011.31;;;18.21;49.51
51972;BME280;37991;49.662;10.060;2022-07-10T11:47:57;100014.22;;;18.18;49.95
51972;BME280;37991;49.662;10.060;2022-07-10T11:50:23;100013.28;;;18.19;49.52
51972;BME280;37991;49.662;10.060;2022-07-10T11:52:49;100020.41;;;18.28;50.10
51972;BME280;37991;49.662;10.060;2022-07-10T11:55:20;100014.91;;;18.49;49.16
51972;BME280;37991;49.662;10.060;2022-07-10T11:57:46;100015.34;;;18.54;49.58
51972;BME280;37991;49.662;10.060;2022-07-10T12:00:34;100008.59;;;18.60;49.15
51972;BME280;37991;49.662;10.060;2022-07-10T12:03:19;100006.56;;;18.54;49.72
51972;BME280;37991;49.662;10.060;2022-07-10T12:05:46;100016.19;;;18.45;49.48
51972;BME280;37991;49.662;10.060;2022-07-10T12:08:12;100014.81;;;18.41;50.18
51972;BME280;37991;49.662;10.060;2022-07-10T12:10:40;100018.97;;;18.44;50.56
51972;BME280;37991;49.662;10.060;2022-07-10T12:13:13;100019.94;;;18.52;50.48
51972;BME280;37991;49.662;10.060;2022-07-10T12:15:43;100009.03;;;18.65;49.75
51972;BME280;37991;49.662;10.060;2022-07-10T12:18:16;100015.47;;;18.72;49.78
51972;BME280;37991;49.662;10.060;2022-07-10T12:20:42;100012.47;;;18.95;49.69
51972;BME280;37991;49.662;10.060;2022-07-10T12:23:11;100012.00;;;19.09;48.85
51972;BME280;37991;49.662;10.060;2022-07-10T12:25:37;100010.63;;;19.33;48.61
51972;BME280;37991;49.662;10.060;2022-07-10T12:28:03;100011.47;;;19.33;48.55
51972;BME280;37991;49.662;10.060;2022-07-10T12:30:37;100015.69;;;19.26;47.91
51972;BME280;37991;49.662;10.060;2022-07-10T12:33:14;100017.56;;;19.16;48.92
51972;BME280;37991;49.662;10.060;2022-07-10T12:35:49;100019.47;;;19.23;49.67
51972;BME280;37991;49.662;10.060;2022-07-10T12:38:19;100018.25;;;19.18;48.65
51972;BME280;37991;49.662;10.060;2022-07-10T12:40:45;100013.13;;;19.07;48.97
51972;BME280;37991;49.662;10.060;2022-07-10T12:43:11;100006.31;;;18.94;49.03
51972;BME280;37991;49.662;10.060;2022-07-10T12:45:37;100009.13;;;18.93;49.34
51972;BME280;37991;49.662;10.060;2022-07-10T12:48:04;100011.59;;;19.04;49.69
51972;BME280;37991;49.662;10.060;2022-07-10T12:50:31;100006.56;;;19.01;49.71
51972;BME280;37991;49.662;10.060;2022-07-10T12:53:12;100012.00;;;19.09;49.44
51972;BME280;37991;49.662;10.060;2022-07-10T12:55:39;100008.09;;;19.03;50.41
51972;BME280;37991;49.662;10.060;2022-07-10T12:58:08;100009.19;;;18.73;49.30
51972;BME280;37991;49.662;10.060;2022-07-10T13:00:45;100007.94;;;18.58;50.46
51972;BME280;37991;49.662;10.060;2022-07-10T13:03:17;100002.44;;;18.69;50.40
51972;BME280;37991;49.662;10.060;2022-07-10T13:05:43;100005.09;;;18.69;50.17